Time;durP1;ratioP1;P1;durP2;ratioP2;P2;SDS_P1;SDS_P2;PMS_P1;PMS_P2;Temp;Humidity;BMP_temperature;BMP_pressure;BME280_temperature;BME280_humidity;BME280_pressure;Samples;Min_cycle;Max_cycle;Signal;HPM_P1;HPM_P2
2024/03/09 00:00:18;;;;;;;29.40;15.77;;;10.00;99.90;;;;;;7281775;19;20206;-77
2024/03/09 00:02:50;;;;;;;27.60;16.20;;;10.00;99.90;;;;;;7282861;19;20244;-78
2024/03/09 00:05:20;;;;;;;24.67;14.90;;;10.00;99.90;;;;;;7283320;19;20192;-77
2024/03/09 00:07:50;;;;;;;27.43;16.23;;;10.00;99.90;;;;;;7281902;19;20192;-78
2024/03/09 00:10:16;;;;;;;29.73;16.00;;;10.00;99.90;;;;;;7282516;19;20205;-77
2024/03/09 00:12:47;;;;;;;28.90;16.50;;;10.00;99.90;;;;;;7281639;19;20196;-77
2024/03/09 00:15:15;;;;;;;28.83;17.00;;;10.10;99.90;;;;;;7283709;19;20196;-77
2024/03/09 00:17:43;;;;;;;28.27;16.20;;;10.20;99.90;;;;;;7282691;19;20191;-77
2024/03/09 00:20:13;;;;;;;29.77;16.37;;;10.20;99.90;;;;;;7282602;19;20193;-77
2024/03/09 00:22:40;;;;;;;27.43;16.00;;;10.20;99.90;;;;;;7281387;19;20670;-78
2024/03/09 00:25:08;;;;;;;27.07;15.50;;;10.20;99.90;;;;;;7283353;19;20203;-77
2024/03/09 00:27:34;;;;;;;26.53;15.67;;;10.30;99.90;;;;;;7284033;19;20187;-77
2024/03/09 00:30:01;;;;;;;27.53;15.73;;;10.20;99.90;;;;;;7303358;19;20295;-78
2024/03/09 00:32:27;;;;;;;28.90;16.90;;;10.30;99.90;;;;;;7281037;19;20577;-78
2024/03/09 00:34:53;;;;;;;30.30;17.07;;;10.30;99.90;;;;;;7283282;19;20268;-77
2024/03/09 00:37:19;;;;;;;29.33;16.23;;;10.30;99.90;;;;;;7281339;19;20188;-77
2024/03/09 00:39:45;;;;;;;25.83;15.73;;;10.20;99.90;;;;;;7281219;19;20738;-77
2024/03/09 00:42:20;;;;;;;29.23;16.50;;;10.00;99.90;;;;;;7280148;19;20291;-77
2024/03/09 00:44:46;;;;;;;28.20;16.53;;;9.90;99.90;;;;;;7281664;19;20199;-77
2024/03/09 00:47:14;;;;;;;31.73;17.20;;;9.70;99.90;;;;;;7280441;19;20204;-77
2024/03/09 00:49:40;;;;;;;30.40;17.60;;;9.70;99.90;;;;;;7280812;19;20215;-77
2024/03/09 00:52:07;;;;;;;29.23;17.27;;;9.60;99.90;;;;;;7281627;19;20974;-77
2024/03/09 00:54:35;;;;;;;29.53;16.60;;;9.60;99.90;;;;;;7296916;19;20533;-77
2024/03/09 00:57:01;;;;;;;29.83;16.77;;;9.40;99.90;;;;;;7305374;19;20202;-77
2024/03/09 00:59:28;;;;;;;34.17;17.37;;;9.30;99.90;;;;;;7283001;19;20697;-77
2024/03/09 01:01:55;;;;;;;27.80;16.60;;;9.20;99.90;;;;;;7281996;19;20205;-78
2024/03/09 01:04:23;;;;;;;31.00;17.03;;;9.30;99.90;;;;;;7282203;19;20203;-78
2024/03/09 01:06:49;;;;;;;32.07;17.80;;;9.30;99.90;;;;;;7280984;19;20195;-77
2024/03/09 01:09:15;;;;;;;29.87;18.33;;;9.30;99.90;;;;;;7282754;19;20664;-77
2024/03/09 01:11:41;;;;;;;34.07;17.83;;;9.40;99.90;;;;;;7282162;19;20229;-78
2024/03/09 01:14:07;;;;;;;32.60;18.30;;;9.40;99.90;;;;;;7281329;19;20194;-77
2024/03/09 01:16:33;;;;;;;29.53;18.03;;;9.60;99.90;;;;;;7298891;19;20200;-77
2024/03/09 01:18:59;;;;;;;31.53;17.00;;;9.60;99.90;;;;;;7297054;19;20195;-78
2024/03/09 01:21:28;;;;;;;31.37;18.00;;;9.70;99.90;;;;;;7280427;19;20725;-77
2024/03/09 01:23:54;;;;;;;32.00;17.97;;;9.60;99.90;;;;;;7280545;19;20184;-78
2024/03/09 01:26:22;;;;;;;31.67;18.13;;;9.50;99.90;;;;;;7279900;19;20990;-78
2024/03/09 01:28:48;;;;;;;30.03;17.43;;;9.70;99.90;;;;;;7280351;19;20189;-78
2024/03/09 01:31:16;;;;;;;30.20;17.53;;;9.60;99.90;;;;;;7281469;19;20189;-76
2024/03/09 01:33:42;;;;;;;31.57;17.03;;;9.60;99.90;;;;;;7278585;19;20228;-75
2024/03/09 01:36:08;;;;;;;31.43;16.67;;;9.60;99.90;;;;;;7278108;19;20258;-75
2024/03/09 01:38:34;;;;;;;32.17;17.37;;;9.50;99.90;;;;;;7280226;19;20187;-77
2024/03/09 01:41:00;;;;;;;30.67;17.10;;;9.60;99.90;;;;;;7301799;19;20210;-78
2024/03/09 01:43:26;;;;;;;31.67;17.43;;;9.70;99.90;;;;;;7279887;19;20188;-76
2024/03/09 01:45:52;;;;;;;31.23;18.27;;;9.60;99.90;;;;;;7288506;19;20251;-76
2024/03/09 01:48:21;;;;;;;30.23;17.17;;;9.50;99.90;;;;;;7288056;19;20183;-76
2024/03/09 01:50:51;;;;;;;31.50;17.47;;;9.60;99.90;;;;;;7287097;19;20436;-76
2024/03/09 01:53:19;;;;;;;29.80;16.90;;;9.70;99.90;;;;;;7286023;19;20543;-76
2024/03/09 01:55:48;;;;;;;29.93;17.50;;;9.60;99.90;;;;;;7287353;19;20637;-76
2024/03/09 01:58:20;;;;;;;31.07;16.60;;;9.50;99.90;;;;;;7287119;19;20190;-75
2024/03/09 02:00:56;;;;;;;34.20;17.97;;;9.40;99.90;;;;;;7283327;19;20535;-76
2024/03/09 02:03:24;;;;;;;33.23;18.07;;;9.40;99.90;;;;;;7286531;19;20194;-75
2024/03/09 02:05:50;;;;;;;33.77;17.77;;;9.50;99.90;;;;;;7285846;19;20193;-76
2024/03/09 02:08:19;;;;;;;31.80;16.93;;;9.50;99.90;;;;;;7286356;19;20668;-76
2024/03/09 02:10:47;;;;;;;31.77;17.17;;;9.60;99.90;;;;;;7286872;19;20193;-76
2024/03/09 02:13:15;;;;;;;30.93;16.57;;;9.60;99.90;;;;;;7286529;19;20185;-76
2024/03/09 02:15:47;;;;;;;34.20;18.20;;;9.50;99.90;;;;;;7286722;19;20550;-76
2024/03/09 02:18:13;;;;;;;30.83;17.33;;;9.50;99.90;;;;;;7285889;19;20623;-76
2024/03/09 02:20:40;;;;;;;29.97;17.00;;;9.50;99.90;;;;;;7286844;19;20573;-76
2024/03/09 02:23:09;;;;;;;33.20;18.00;;;9.50;99.90;;;;;;7284714;19;20211;-75
2024/03/09 02:25:36;;;;;;;35.00;17.40;;;9.50;99.90;;;;;;7286710;19;20196;-75
2024/03/09 02:28:03;;;;;;;30.80;16.90;;;9.50;99.90;;;;;;7307616;19;20687;-76
2024/03/09 02:30:32;;;;;;;33.43;18.00;;;9.40;99.90;;;;;;7286787;19;20258;-76
2024/03/09 02:32:58;;;;;;;32.23;16.60;;;9.50;99.90;;;;;;7286214;19;20554;-76
2024/03/09 02:35:25;;;;;;;32.43;17.43;;;9.40;99.90;;;;;;7286577;19;20188;-75
2024/03/09 02:37:51;;;;;;;32.17;17.80;;;9.50;99.90;;;;;;7285592;19;20259;-76
2024/03/09 02:40:18;;;;;;;36.33;17.63;;;9.40;99.90;;;;;;7283899;19;20198;-75
2024/03/09 02:45:28;;;;;;;29.53;17.23;;;9.50;99.90;;;;;;7286238;19;20194;-76
2024/03/09 02:47:54;;;;;;;29.97;17.00;;;9.60;99.90;;;;;;7284369;19;20197;-75
2024/03/09 02:50:23;;;;;;;32.50;17.43;;;9.50;99.90;;;;;;7281664;19;20224;-75
2024/03/09 02:52:49;;;;;;;32.10;17.97;;;9.50;99.90;;;;;;7281054;19;20203;-75
2024/03/09 02:55:15;;;;;;;30.17;16.57;;;9.50;99.90;;;;;;7280934;19;20194;-75
2024/03/09 02:57:41;;;;;;;29.93;16.87;;;9.40;99.90;;;;;;7283089;19;20264;-76
2024/03/09 03:00:08;;;;;;;32.40;17.37;;;9.50;99.90;;;;;;7283830;19;20187;-75
2024/03/09 03:05:19;;;;;;;35.33;17.87;;;9.70;99.90;;;;;;7284892;19;20195;-75
2024/03/09 03:07:46;;;;;;;33.23;17.87;;;9.70;99.90;;;;;;7285634;19;20186;-76
2024/03/09 03:10:12;;;;;;;32.80;17.00;;;9.70;99.90;;;;;;7284271;19;20203;-76
2024/03/09 03:12:38;;;;;;;32.70;17.80;;;9.60;99.90;;;;;;7285412;19;20183;-75
2024/03/09 03:15:08;;;;;;;33.27;18.63;;;9.70;99.90;;;;;;7298473;19;20185;-75
2024/03/09 03:17:34;;;;;;;31.10;17.50;;;9.70;99.90;;;;;;7299886;19;20239;-75
2024/03/09 03:20:00;;;;;;;31.70;17.40;;;9.60;99.90;;;;;;7304695;19;20191;-77
2024/03/09 03:22:26;;;;;;;35.13;18.57;;;9.50;99.90;;;;;;7284379;19;20769;-76
2024/03/09 03:24:51;;;;;;;32.67;17.83;;;9.50;99.90;;;;;;7282687;19;20192;-76
2024/03/09 03:27:21;;;;;;;33.50;17.77;;;9.30;99.90;;;;;;7281400;19;20187;-76
2024/03/09 03:29:48;;;;;;;31.40;17.27;;;9.40;99.90;;;;;;7284246;19;20206;-76
2024/03/09 03:32:17;;;;;;;32.87;17.93;;;9.40;99.90;;;;;;7282104;19;20191;-76
2024/03/09 03:34:43;;;;;;;30.77;17.80;;;9.30;99.90;;;;;;7283349;19;20683;-77
2024/03/09 03:37:09;;;;;;;30.33;16.47;;;9.10;99.90;;;;;;7283676;19;20183;-77
2024/03/09 03:39:37;;;;;;;32.07;17.17;;;9.20;99.90;;;;;;7283725;19;20221;-76
2024/03/09 03:42:03;;;;;;;33.40;17.10;;;9.10;99.90;;;;;;7305264;19;20187;-75
2024/03/09 03:44:33;;;;;;;32.93;17.07;;;9.10;99.90;;;;;;7300047;19;20191;-76
2024/03/09 03:46:58;;;;;;;31.50;17.47;;;9.00;99.90;;;;;;7284303;19;20179;-76
2024/03/09 03:49:26;;;;;;;33.57;16.87;;;8.90;99.90;;;;;;7284672;19;20262;-77
2024/03/09 03:51:52;;;;;;;31.23;16.80;;;8.90;99.90;;;;;;7283057;19;20183;-76
2024/03/09 03:54:17;;;;;;;31.43;16.93;;;9.00;99.90;;;;;;7283586;19;20190;-76
2024/03/09 03:56:43;;;;;;;31.70;16.77;;;9.10;99.90;;;;;;7284113;19;20195;-76
2024/03/09 03:59:09;;;;;;;32.23;16.27;;;9.00;99.90;;;;;;7282992;19;20186;-76
2024/03/09 04:01:35;;;;;;;29.33;15.73;;;8.90;99.90;;;;;;7282864;19;20192;-76
2024/03/09 04:04:01;;;;;;;30.73;17.10;;;8.80;99.90;;;;;;7304772;19;20543;-76
2024/03/09 04:06:27;;;;;;;34.57;17.37;;;8.90;99.90;;;;;;7281912;19;20520;-77
2024/03/09 04:08:52;;;;;;;29.83;15.90;;;8.80;99.90;;;;;;7280926;19;20202;-76
2024/03/09 04:11:18;;;;;;;32.60;17.00;;;8.80;99.90;;;;;;7282424;19;20191;-76
2024/03/09 04:13:44;;;;;;;30.57;16.87;;;8.70;99.90;;;;;;7281822;19;20183;-76
2024/03/09 04:16:10;;;;;;;30.93;16.70;;;8.80;99.90;;;;;;7283099;19;20190;-76
2024/03/09 04:18:36;;;;;;;28.87;16.10;;;8.70;99.90;;;;;;7281923;19;20611;-76
2024/03/09 04:21:03;;;;;;;30.93;16.53;;;8.60;99.90;;;;;;7303283;19;20256;-76
2024/03/09 04:23:29;;;;;;;30.90;17.50;;;8.50;99.90;;;;;;7282701;19;20333;-77
2024/03/09 04:25:56;;;;;;;30.83;16.73;;;8.60;99.90;;;;;;7281175;19;20210;-76
2024/03/09 04:28:22;;;;;;;32.23;16.97;;;8.60;99.90;;;;;;7283532;19;20203;-76
2024/03/09 04:30:49;;;;;;;31.20;17.50;;;8.60;99.90;;;;;;7282033;19;20207;-77
2024/03/09 04:33:16;;;;;;;31.27;17.07;;;8.70;99.90;;;;;;7281443;19;20687;-76
2024/03/09 04:35:42;;;;;;;32.37;17.90;;;8.80;99.90;;;;;;7282603;19;20194;-76
2024/03/09 04:38:09;;;;;;;32.83;16.10;;;8.70;99.90;;;;;;7280221;19;20198;-76
2024/03/09 04:40:35;;;;;;;33.80;17.37;;;8.80;99.90;;;;;;7282317;19;20773;-76
2024/03/09 04:43:04;;;;;;;29.87;16.63;;;8.80;99.90;;;;;;7302542;19;20206;-76
2024/03/09 04:45:32;;;;;;;31.57;16.63;;;8.70;99.90;;;;;;7280524;19;20293;-76
2024/03/09 04:47:59;;;;;;;31.37;16.60;;;8.70;99.90;;;;;;7281607;19;20222;-76
2024/03/09 04:50:25;;;;;;;34.53;17.53;;;8.60;99.90;;;;;;7281701;19;20207;-76
2024/03/09 04:52:51;;;;;;;30.13;17.37;;;8.60;99.90;;;;;;7281746;19;20673;-76
2024/03/09 04:55:29;;;;;;;33.93;17.73;;;8.50;99.90;;;;;;7282549;19;20191;-76
2024/03/09 04:57:55;;;;;;;33.23;17.80;;;8.40;99.90;;;;;;7280442;19;20180;-76
2024/03/09 05:00:23;;;;;;;34.40;18.27;;;8.30;99.90;;;;;;7280962;19;20180;-77
2024/03/09 05:02:50;;;;;;;34.73;18.03;;;8.30;99.90;;;;;;7281930;19;20207;-76
2024/03/09 05:05:19;;;;;;;32.97;18.00;;;8.30;99.90;;;;;;7280170;19;20214;-76
2024/03/09 05:07:50;;;;;;;32.93;18.27;;;8.30;99.90;;;;;;7280776;19;20713;-76
2024/03/09 05:10:17;;;;;;;33.97;17.67;;;8.10;99.90;;;;;;7281232;19;20932;-77
2024/03/09 05:12:53;;;;;;;32.97;17.50;;;8.10;99.90;;;;;;7280559;19;20256;-76
2024/03/09 05:15:20;;;;;;;35.17;18.23;;;8.10;99.90;;;;;;7280831;19;20191;-76
2024/03/09 05:17:46;;;;;;;32.47;17.10;;;8.10;99.90;;;;;;7281122;19;20513;-76
2024/03/09 05:20:14;;;;;;;34.53;18.37;;;8.20;99.90;;;;;;7285872;19;20309;-76
2024/03/09 05:22:41;;;;;;;36.00;18.00;;;8.10;99.90;;;;;;7286108;19;20186;-76
2024/03/09 05:25:10;;;;;;;33.20;17.97;;;8.10;99.90;;;;;;7286474;19;20190;-76
2024/03/09 05:27:42;;;;;;;35.20;17.97;;;8.10;99.90;;;;;;7289107;19;20206;-76
2024/03/09 05:30:18;;;;;;;34.67;17.93;;;8.10;99.90;;;;;;7287486;19;20190;-76
2024/03/09 05:32:54;;;;;;;33.47;16.93;;;8.10;99.90;;;;;;7288514;19;20277;-76
2024/03/09 05:35:21;;;;;;;37.20;17.97;;;8.00;99.90;;;;;;7286199;19;20199;-76
2024/03/09 05:37:49;;;;;;;34.53;17.57;;;8.00;99.90;;;;;;7287305;19;20201;-76
2024/03/09 05:40:16;;;;;;;34.93;17.43;;;7.90;99.90;;;;;;7286051;19;20597;-76
2024/03/09 05:42:43;;;;;;;34.90;17.10;;;7.90;99.90;;;;;;7286629;19;20214;-76
2024/03/09 05:45:18;;;;;;;29.60;16.53;;;8.00;99.90;;;;;;7286963;19;20228;-76
2024/03/09 05:47:52;;;;;;;34.40;17.00;;;7.90;99.90;;;;;;7287655;19;20198;-76
2024/03/09 05:50:19;;;;;;;35.43;18.20;;;7.90;99.90;;;;;;7287907;19;20188;-76
2024/03/09 05:52:49;;;;;;;33.90;17.53;;;7.90;99.90;;;;;;7287574;19;20186;-76
2024/03/09 05:55:16;;;;;;;32.50;17.17;;;8.00;99.90;;;;;;7287333;19;20194;-77
2024/03/09 05:57:43;;;;;;;33.70;17.57;;;8.00;99.90;;;;;;7287276;19;20217;-76
2024/03/09 06:00:10;;;;;;;37.00;17.57;;;8.10;99.90;;;;;;7288082;19;20203;-76
2024/03/09 06:02:42;;;;;;;30.77;17.17;;;8.10;99.90;;;;;;7285285;19;20211;-76
2024/03/09 06:05:08;;;;;;;34.13;18.20;;;8.20;99.90;;;;;;7286485;19;20247;-76
2024/03/09 06:07:42;;;;;;;33.30;16.40;;;8.20;99.90;;;;;;7300450;19;20186;-76
2024/03/09 06:10:13;;;;;;;33.27;17.27;;;8.30;99.90;;;;;;7286879;19;20195;-77
2024/03/09 06:12:52;;;;;;;31.67;17.27;;;8.20;99.90;;;;;;7287426;19;20203;-77
2024/03/09 06:15:19;;;;;;;33.07;16.77;;;8.20;99.90;;;;;;7286622;19;20190;-77
2024/03/09 06:17:52;;;;;;;31.50;16.97;;;8.10;99.90;;;;;;7289252;19;20270;-77
2024/03/09 06:20:18;;;;;;;32.73;16.03;;;8.20;99.90;;;;;;7289440;19;20262;-77
2024/03/09 06:22:47;;;;;;;32.93;17.03;;;8.10;99.90;;;;;;7287934;19;20708;-77
2024/03/09 06:25:22;;;;;;;30.03;16.70;;;8.10;99.90;;;;;;7287312;19;20196;-78
2024/03/09 06:27:51;;;;;;;31.00;16.10;;;8.20;99.90;;;;;;7284431;19;20520;-78
2024/03/09 06:30:17;;;;;;;32.60;16.07;;;8.10;99.90;;;;;;7284751;19;20671;-78
2024/03/09 06:32:44;;;;;;;30.83;15.80;;;8.20;99.90;;;;;;7287684;19;20217;-77
2024/03/09 06:35:10;;;;;;;30.00;15.83;;;8.20;99.90;;;;;;7287688;19;20187;-78
2024/03/09 06:37:36;;;;;;;29.77;15.00;;;8.20;99.90;;;;;;7286724;19;20190;-77
2024/03/09 06:40:02;;;;;;;31.80;16.03;;;8.20;99.90;;;;;;7310538;19;20183;-77
2024/03/09 06:42:29;;;;;;;29.20;14.90;;;8.30;99.90;;;;;;7287400;19;20606;-78
2024/03/09 06:44:55;;;;;;;33.00;15.90;;;8.40;99.90;;;;;;7287567;19;20181;-77
2024/03/09 06:47:22;;;;;;;29.67;15.17;;;8.40;99.90;;;;;;7287822;19;20197;-78
2024/03/09 06:49:48;;;;;;;28.57;15.27;;;8.30;99.90;;;;;;7290098;19;20192;-78
2024/03/09 06:52:15;;;;;;;33.63;15.07;;;8.30;99.90;;;;;;7289514;19;20536;-77
2024/03/09 06:54:42;;;;;;;29.13;14.47;;;8.40;99.90;;;;;;7286696;19;20597;-77
2024/03/09 06:57:11;;;;;;;24.47;13.70;;;9.10;99.90;;;;;;7286116;19;20193;-77
2024/03/09 06:59:40;;;;;;;66.00;20.67;;;9.80;99.90;;;;;;7287194;19;20189;-77
2024/03/09 07:02:06;;;;;;;32.53;13.93;;;10.00;99.90;;;;;;7285691;19;20192;-76
2024/03/09 07:04:32;;;;;;;34.07;14.60;;;9.90;99.90;;;;;;7310451;19;20252;-77
2024/03/09 07:06:58;;;;;;;33.83;16.03;;;9.70;99.90;;;;;;7286557;19;20180;-77
2024/03/09 07:09:24;;;;;;;26.30;13.10;;;9.70;99.90;;;;;;7284305;19;20190;-77
2024/03/09 07:11:50;;;;;;;26.97;13.90;;;10.00;99.90;;;;;;7288032;19;20210;-77
2024/03/09 07:14:22;;;;;;;23.27;12.87;;;10.70;99.90;;;;;;7285314;19;20178;-78
2024/03/09 07:16:49;;;;;;;24.93;12.87;;;11.80;99.90;;;;;;7284418;19;20194;-79
2024/03/09 07:19:16;;;;;;;23.33;12.37;;;12.60;99.90;;;;;;7286073;19;20516;-77
2024/03/09 07:21:42;;;;;;;25.00;13.10;;;13.40;99.90;;;;;;7285615;19;20184;-78
2024/03/09 07:24:08;;;;;;;26.60;13.47;;;12.70;99.90;;;;;;7284669;19;20886;-76
2024/03/09 07:26:39;;;;;;;24.33;12.70;;;12.10;99.90;;;;;;7307731;19;20306;-78
2024/03/09 07:29:05;;;;;;;28.73;13.00;;;11.80;99.90;;;;;;7271763;19;20590;-76
2024/03/09 07:31:31;;;;;;;25.53;13.67;;;12.60;99.90;;;;;;7304586;19;20194;-76
2024/03/09 07:33:57;;;;;;;20.97;11.57;;;14.10;99.90;;;;;;7285525;19;20251;-76
2024/03/09 07:36:23;;;;;;;23.20;11.97;;;14.30;99.90;;;;;;7284063;19;20188;-77
2024/03/09 07:38:49;;;;;;;21.73;12.00;;;14.50;99.90;;;;;;7284624;19;20200;-76
2024/03/09 07:41:16;;;;;;;22.97;12.47;;;14.90;99.90;;;;;;7285616;19;20193;-76
2024/03/09 07:43:44;;;;;;;21.07;12.03;;;14.90;99.90;;;;;;7283014;19;20659;-76
2024/03/09 07:46:10;;;;;;;28.23;13.43;;;13.60;99.90;;;;;;7285449;19;20211;-76
2024/03/09 07:48:37;;;;;;;21.80;11.80;;;13.30;99.90;;;;;;7285214;19;20654;-76
2024/03/09 07:51:03;;;;;;;20.97;11.60;;;12.70;99.90;;;;;;7306622;19;20201;-76
2024/03/09 07:53:29;;;;;;;23.63;11.97;;;12.90;99.90;;;;;;7285125;19;20193;-77
2024/03/09 07:55:57;;;;;;;22.63;11.90;;;12.50;99.90;;;;;;7283326;19;20175;-77
2024/03/09 07:58:23;;;;;;;21.97;12.10;;;12.20;99.90;;;;;;7283970;19;20195;-77
2024/03/09 08:00:49;;;;;;;23.87;11.70;;;12.30;99.90;;;;;;7285211;19;20187;-77
2024/03/09 08:03:17;;;;;;;23.47;11.83;;;12.50;99.90;;;;;;7283162;19;20190;-77
2024/03/09 08:05:43;;;;;;;20.57;11.00;;;13.10;99.90;;;;;;7282980;19;20670;-77
2024/03/09 08:08:09;;;;;;;22.53;11.27;;;13.20;99.90;;;;;;7283517;19;20191;-77
2024/03/09 08:10:39;;;;;;;20.77;11.87;;;12.90;99.90;;;;;;7289994;19;20197;-77
2024/03/09 08:13:04;;;;;;;19.33;11.33;;;12.50;99.90;;;;;;7301169;19;20181;-76
2024/03/09 08:15:32;;;;;;;20.40;11.17;;;12.30;99.90;;;;;;7296885;19;20652;-76
2024/03/09 08:17:58;;;;;;;19.93;11.13;;;12.30;99.90;;;;;;7279051;19;20288;-76
2024/03/09 08:20:24;;;;;;;18.13;10.53;;;12.40;99.90;;;;;;7277977;19;20703;-76
2024/03/09 08:22:50;;;;;;;20.77;11.27;;;12.50;99.90;;;;;;7280362;19;20194;-76
2024/03/09 08:25:17;;;;;;;19.13;10.73;;;12.60;99.90;;;;;;7277588;19;20209;-77
2024/03/09 08:27:44;;;;;;;18.57;10.23;;;12.90;99.90;;;;;;7278643;19;20178;-77
2024/03/09 08:30:15;;;;;;;18.03;9.93;;;13.00;99.90;;;;;;7280735;19;20580;-76
2024/03/09 08:32:47;;;;;;;19.27;10.20;;;12.90;99.90;;;;;;7282234;19;20206;-78
2024/03/09 08:35:15;;;;;;;19.17;10.37;;;12.40;99.90;;;;;;7279806;19;20699;-76
2024/03/09 08:37:42;;;;;;;18.13;9.63;;;12.00;99.90;;;;;;7280640;19;20660;-76
2024/03/09 08:40:09;;;;;;;19.20;10.50;;;12.00;99.90;;;;;;7281684;19;20186;-76
2024/03/09 08:42:36;;;;;;;21.23;11.10;;;11.90;99.90;;;;;;7295653;19;20200;-77
2024/03/09 08:45:05;;;;;;;20.67;10.73;;;11.70;99.90;;;;;;7304946;19;20185;-78
2024/03/09 08:47:32;;;;;;;19.67;10.33;;;11.80;99.90;;;;;;7280620;19;20195;-78
2024/03/09 08:49:57;;;;;;;19.93;10.83;;;11.90;99.90;;;;;;7281952;19;20200;-78
2024/03/09 08:52:23;;;;;;;18.60;9.73;;;11.90;99.90;;;;;;7281525;19;20214;-78
2024/03/09 08:54:50;;;;;;;20.13;10.30;;;11.70;99.90;;;;;;7280256;19;20233;-79
2024/03/09 08:57:17;;;;;;;19.60;9.80;;;11.70;99.90;;;;;;7281057;19;20197;-78
2024/03/09 08:59:52;;;;;;;21.40;10.57;;;11.80;99.90;;;;;;7280571;19;20207;-77
2024/03/09 09:02:21;;;;;;;17.50;9.83;;;11.90;99.90;;;;;;7280957;19;20196;-76
2024/03/09 09:04:46;;;;;;;18.93;9.50;;;11.90;99.90;;;;;;7280936;19;20186;-76
2024/03/09 09:07:12;;;;;;;16.83;9.10;;;12.20;99.90;;;;;;7281896;19;20203;-77
2024/03/09 09:09:38;;;;;;;20.13;9.80;;;12.20;99.90;;;;;;7279798;19;20193;-76
2024/03/09 09:12:08;;;;;;;15.83;9.03;;;12.40;99.90;;;;;;7302660;19;20193;-76
2024/03/09 09:14:34;;;;;;;16.10;8.77;;;12.50;99.90;;;;;;7280993;19;20190;-76
2024/03/09 09:16:59;;;;;;;17.40;8.57;;;12.40;99.90;;;;;;7280816;19;20261;-77
2024/03/09 09:19:26;;;;;;;16.77;9.40;;;12.40;99.90;;;;;;7280368;19;20262;-77
2024/03/09 09:21:51;;;;;;;16.17;9.33;;;12.50;99.90;;;;;;7277666;19;20201;-77
2024/03/09 09:24:17;;;;;;;15.43;8.90;;;12.60;99.90;;;;;;7277955;19;20198;-76
2024/03/09 09:26:43;;;;;;;17.50;9.23;;;12.70;99.90;;;;;;7279622;19;20280;-76
2024/03/09 09:29:10;;;;;;;17.73;9.47;;;13.00;99.90;;;;;;7278141;19;20308;-77
2024/03/09 09:31:37;;;;;;;17.77;9.47;;;13.50;99.90;;;;;;7284903;19;20185;-77
2024/03/09 09:34:03;;;;;;;18.33;9.77;;;13.60;99.90;;;;;;7301980;19;20196;-76
2024/03/09 09:36:29;;;;;;;17.57;9.70;;;13.40;99.90;;;;;;7279023;19;20929;-77
2024/03/09 09:38:59;;;;;;;17.03;9.40;;;13.40;99.90;;;;;;7280276;19;20202;-77
2024/03/09 09:41:28;;;;;;;17.17;9.27;;;13.20;99.90;;;;;;7278073;19;20197;-77
2024/03/09 09:43:59;;;;;;;16.87;9.60;;;13.10;99.90;;;;;;7279376;19;20342;-77
2024/03/09 09:46:27;;;;;;;17.10;9.17;;;13.20;99.90;;;;;;7278380;19;20193;-77
2024/03/09 09:48:53;;;;;;;15.97;8.87;;;13.40;99.90;;;;;;7278176;19;20280;-77
2024/03/09 09:51:24;;;;;;;16.60;8.40;;;13.60;99.90;;;;;;7279757;19;20203;-77
2024/03/09 09:53:53;;;;;;;15.20;7.90;;;13.90;99.90;;;;;;7278288;19;20553;-77
2024/03/09 09:56:22;;;;;;;15.50;7.73;;;14.00;99.90;;;;;;7278739;19;20199;-77
2024/03/09 09:58:49;;;;;;;13.43;7.90;;;14.10;99.90;;;;;;7278948;19;20315;-76
2024/03/09 10:01:20;;;;;;;16.57;9.10;;;13.90;99.90;;;;;;7277447;19;20222;-77
2024/03/09 10:03:47;;;;;;;17.90;8.47;;;13.90;99.90;;;;;;7278896;19;20193;-77
2024/03/09 10:06:21;;;;;;;13.70;7.30;;;14.10;99.90;;;;;;7279926;19;20200;-77
2024/03/09 10:08:52;;;;;;;14.77;7.40;;;14.30;99.90;;;;;;7283786;19;20223;-77
2024/03/09 10:11:20;;;;;;;15.43;7.77;;;14.50;99.90;;;;;;7282867;19;20197;-77
2024/03/09 10:13:47;;;;;;;13.87;7.20;;;14.60;99.90;;;;;;7284728;19;20648;-77
2024/03/09 10:16:17;;;;;;;13.53;7.17;;;14.80;99.90;;;;;;7284313;19;20193;-77
2024/03/09 10:18:44;;;;;;;12.37;6.27;;;14.60;99.90;;;;;;7282890;19;20193;-77
2024/03/09 10:21:10;;;;;;;13.60;6.33;;;15.20;99.90;;;;;;7282832;19;20201;-77
2024/03/09 10:23:37;;;;;;;13.40;6.37;;;16.90;99.90;;;;;;7286998;19;20216;-77
2024/03/09 10:26:06;;;;;;;10.10;5.57;;;17.50;99.90;;;;;;7308980;19;20264;-77
2024/03/09 10:28:37;;;;;;;9.80;5.03;;;17.40;99.90;;;;;;7285407;19;20200;-77
2024/03/09 10:31:09;;;;;;;11.80;6.17;;;17.70;99.90;;;;;;7284581;19;20204;-76
2024/03/09 10:33:36;;;;;;;11.87;6.27;;;17.60;99.90;;;;;;7278291;19;20300;-78
2024/03/09 10:36:03;;;;;;;12.30;5.97;;;17.20;99.90;;;;;;7306932;19;20817;-77
2024/03/09 10:38:30;;;;;;;11.87;6.13;;;17.10;99.90;;;;;;7284596;19;20613;-78
2024/03/09 10:40:59;;;;;;;11.00;5.87;;;17.10;99.90;;;;;;7281862;19;20206;-78
2024/03/09 10:43:29;;;;;;;11.17;5.83;;;17.80;99.90;;;;;;7283545;19;20274;-75
2024/03/09 10:45:57;;;;;;;11.40;5.40;;;18.70;99.90;;;;;;7283306;19;20198;-75
2024/03/09 10:48:26;;;;;;;11.30;6.30;;;19.60;99.90;;;;;;7282947;19;20559;-78
2024/03/09 10:51:19;;;;;;;10.70;5.80;;;19.10;99.90;;;;;;7285079;19;20269;-75
2024/03/09 10:53:53;;;;;;;11.13;5.60;;;19.40;99.90;;;;;;7180322;19;2004530;-76
2024/03/09 10:56:21;;;;;;;11.27;5.37;;;19.80;99.90;;;;;;7282630;19;20858;-78
2024/03/09 10:58:51;;;;;;;9.73;5.23;;;20.00;99.90;;;;;;7283245;19;20182;-77
2024/03/09 11:01:21;;;;;;;10.37;5.47;;;20.20;99.90;;;;;;7281663;19;20653;-77
2024/03/09 11:03:51;;;;;;;9.53;5.80;;;19.50;99.90;;;;;;7284577;19;20752;-77
2024/03/09 11:06:18;;;;;;;10.13;5.63;;;18.10;99.90;;;;;;7282149;19;20189;-77
2024/03/09 11:08:48;;;;;;;10.47;5.70;;;17.20;99.90;;;;;;7283311;19;20192;-77
2024/03/09 11:11:18;;;;;;;10.80;5.40;;;16.90;99.90;;;;;;7280462;19;20333;-78
2024/03/09 11:13:47;;;;;;;11.80;5.43;;;16.70;99.90;;;;;;7281400;19;20192;-77
2024/03/09 11:16:14;;;;;;;11.40;5.53;;;16.60;99.90;;;;;;7281635;19;20205;-77
2024/03/09 11:18:56;;;;;;;11.27;5.07;;;16.50;99.90;;;;;;7279635;19;20216;-76
2024/03/09 11:21:26;;;;;;;11.23;5.53;;;16.30;99.90;;;;;;7279973;19;20258;-77
2024/03/09 11:23:53;;;;;;;12.10;5.87;;;16.10;99.90;;;;;;7283480;19;20361;-77
2024/03/09 11:26:25;;;;;;;10.83;5.33;;;16.30;99.90;;;;;;7282078;19;20604;-77
2024/03/09 11:28:55;;;;;;;10.30;5.10;;;16.20;99.90;;;;;;7281419;19;20211;-77
2024/03/09 11:31:28;;;;;;;10.83;5.27;;;16.40;99.90;;;;;;7281327;19;20186;-77
2024/03/09 11:33:57;;;;;;;10.73;5.30;;;16.20;99.90;;;;;;7280219;19;20190;-77
2024/03/09 11:37:01;;;;;;;10.00;5.00;;;16.30;99.90;;;;;;7281858;19;20193;-76
2024/03/09 11:39:32;;;;;;;12.17;5.33;;;17.20;99.90;;;;;;7177274;19;2006078;-76
2024/03/09 11:42:11;;;;;;;10.53;5.43;;;17.90;99.90;;;;;;7281231;19;20258;-77
2024/03/09 11:44:38;;;;;;;11.90;6.27;;;18.10;99.90;;;;;;7259552;19;20201;-76
2024/03/09 11:47:06;;;;;;;11.47;5.60;;;18.20;99.90;;;;;;7301735;19;20188;-77
2024/03/09 11:49:34;;;;;;;11.27;5.77;;;18.20;99.90;;;;;;7283038;19;20191;-76
2024/03/09 11:52:02;;;;;;;11.73;5.90;;;18.30;99.90;;;;;;7280810;19;20188;-76
2024/03/09 11:54:29;;;;;;;11.03;5.70;;;17.90;99.90;;;;;;7279196;19;20192;-77
2024/03/09 11:56:58;;;;;;;10.73;5.47;;;18.20;99.90;;;;;;7281154;19;20192;-77
2024/03/09 11:59:25;;;;;;;9.73;5.33;;;18.70;99.90;;;;;;7280207;19;20193;-77
2024/03/09 12:02:06;;;;;;;12.33;5.40;;;19.20;99.90;;;;;;7280633;19;20540;-77
2024/03/09 12:04:32;;;;;;;10.37;5.50;;;19.30;99.90;;;;;;7281627;19;20200;-77
2024/03/09 12:07:00;;;;;;;10.97;5.80;;;19.00;99.90;;;;;;7278882;19;20739;-77
2024/03/09 12:09:26;;;;;;;12.07;5.57;;;18.50;99.90;;;;;;7281894;19;20641;-76
2024/03/09 12:11:51;;;;;;;10.50;5.20;;;18.30;99.90;;;;;;7281679;19;20197;-77
2024/03/09 12:14:18;;;;;;;11.17;5.67;;;18.20;99.90;;;;;;7280836;19;20544;-77
2024/03/09 12:16:48;;;;;;;11.83;5.57;;;18.40;99.90;;;;;;7281156;19;20734;-77
2024/03/09 12:19:15;;;;;;;9.93;4.67;;;18.10;99.90;;;;;;7279393;19;20595;-78
2024/03/09 12:21:42;;;;;;;10.03;5.10;;;18.10;99.90;;;;;;7280202;19;20192;-77
2024/03/09 12:24:09;;;;;;;9.60;4.93;;;18.30;99.90;;;;;;7281848;19;20659;-77
2024/03/09 12:26:36;;;;;;;9.97;5.27;;;18.30;99.90;;;;;;7301839;19;20555;-77
2024/03/09 12:29:04;;;;;;;9.40;5.23;;;17.80;99.90;;;;;;7277743;19;20532;-78
2024/03/09 12:31:34;;;;;;;9.67;4.63;;;17.50;99.90;;;;;;7281384;19;20196;-76
2024/03/09 12:34:05;;;;;;;9.50;4.30;;;17.10;99.90;;;;;;7280662;19;20211;-77
2024/03/09 12:36:33;;;;;;;11.10;4.40;;;17.00;99.90;;;;;;7280396;19;20187;-77
2024/03/09 12:39:16;;;;;;;9.07;4.20;;;16.50;99.90;;;;;;7279199;19;20195;-76
2024/03/09 12:41:42;;;;;;;8.87;4.00;;;16.40;99.90;;;;;;7181052;19;2004431;-76
2024/03/09 12:44:10;;;;;;;9.20;3.80;;;16.30;99.90;;;;;;7282095;19;20223;-76